sensor_id;sensor_type;location;lat;lon;timestamp;P1;P2;P0
77538;PMS7003;67783;51.656;16.106;2023-02-15T00:03:07;4;4;1
77538;PMS7003;67783;51.656;16.106;2023-02-15T00:06:09;7;5;1
77538;PMS7003;67783;51.656;16.106;2023-02-15T00:09:11;7;3;2
77538;PMS7003;67783;51.656;16.106;2023-02-15T00:12:14;7;5;3
77538;PMS7003;67783;51.656;16.106;2023-02-15T00:15:16;5;4;2
77538;PMS7003;67783;51.656;16.106;2023-02-15T00:18:29;6;2;1
77538;PMS7003;67783;51.656;16.106;2023-02-15T00:21:31;3;3;2
77538;PMS7003;67783;51.656;16.106;2023-02-15T00:24:34;5;5;4
77538;PMS7003;67783;51.656;16.106;2023-02-15T00:27:36;6;2;2
77538;PMS7003;67783;51.656;16.106;2023-02-15T00:30:38;8;6;3
77538;PMS7003;67783;51.656;16.106;2023-02-15T00:33:49;4;4;2
77538;PMS7003;67783;51.656;16.106;2023-02-15T00:36:51;2;2;0
77538;PMS7003;67783;51.656;16.106;2023-02-15T00:39:53;4;3;2
77538;PMS7003;67783;51.656;16.106;2023-02-15T00:42:55;8;6;4
77538;PMS7003;67783;51.656;16.106;2023-02-15T00:45:59;9;3;2
77538;PMS7003;67783;51.656;16.106;2023-02-15T00:49:10;4;4;2
77538;PMS7003;67783;51.656;16.106;2023-02-15T00:52:12;5;5;3
77538;PMS7003;67783;51.656;16.106;2023-02-15T00:55:14;5;5;2
77538;PMS7003;67783;51.656;16.106;2023-02-15T00:58:16;6;6;3
77538;PMS7003;67783;51.656;16.106;2023-02-15T01:01:19;6;5;3
77538;PMS7003;67783;51.656;16.106;2023-02-15T01:04:31;3;3;2
77538;PMS7003;67783;51.656;16.106;2023-02-15T01:07:32;6;4;2
77538;PMS7003;67783;51.656;16.106;2023-02-15T01:10:35;5;5;3
77538;PMS7003;67783;51.656;16.106;2023-02-15T01:13:37;11;8;5
77538;PMS7003;67783;51.656;16.106;2023-02-15T01:16:40;10;4;2
77538;PMS7003;67783;51.656;16.106;2023-02-15T01:19:51;7;6;3
77538;PMS7003;67783;51.656;16.106;2023-02-15T01:22:53;3;3;2
77538;PMS7003;67783;51.656;16.106;2023-02-15T01:26:00;3;3;2
77538;PMS7003;67783;51.656;16.106;2023-02-15T01:29:03;6;5;4
77538;PMS7003;67783;51.656;16.106;2023-02-15T01:32:05;6;5;3
77538;PMS7003;67783;51.656;16.106;2023-02-15T01:35:12;7;5;3
77538;PMS7003;67783;51.656;16.106;2023-02-15T01:38:14;7;6;5
77538;PMS7003;67783;51.656;16.106;2023-02-15T01:41:16;6;6;4
77538;PMS7003;67783;51.656;16.106;2023-02-15T01:50:46;10;5;4
77538;PMS7003;67783;51.656;16.106;2023-02-15T01:54:05;6;2;1
77538;PMS7003;67783;51.656;16.106;2023-02-15T01:57:09;12;8;5
77538;PMS7003;67783;51.656;16.106;2023-02-15T02:00:14;8;6;4
77538;PMS7003;67783;51.656;16.106;2023-02-15T02:03:18;8;7;4
77538;PMS7003;67783;51.656;16.106;2023-02-15T02:06:32;13;9;7
77538;PMS7003;67783;51.656;16.106;2023-02-15T02:09:39;11;7;4
77538;PMS7003;67783;51.656;16.106;2023-02-15T02:12:42;13;9;7
77538;PMS7003;67783;51.656;16.106;2023-02-15T02:22:28;11;9;6
77538;PMS7003;67783;51.656;16.106;2023-02-15T02:29:01;11;10;6
77538;PMS7003;67783;51.656;16.106;2023-02-15T02:38:42;11;8;6
77538;PMS7003;67783;51.656;16.106;2023-02-15T02:45:17;8;6;4
77538;PMS7003;67783;51.656;16.106;2023-02-15T02:48:27;8;8;5
77538;PMS7003;67783;51.656;16.106;2023-02-15T02:51:33;8;8;5
77538;PMS7003;67783;51.656;16.106;2023-02-15T02:54:42;6;6;4
77538;PMS7003;67783;51.656;16.106;2023-02-15T03:01:02;11;6;5
77538;PMS7003;67783;51.656;16.106;2023-02-15T03:04:15;15;6;4
77538;PMS7003;67783;51.656;16.106;2023-02-15T03:07:21;12;7;5
77538;PMS7003;67783;51.656;16.106;2023-02-15T03:10:28;8;6;5
77538;PMS7003;67783;51.656;16.106;2023-02-15T03:13:36;10;7;6
77538;PMS7003;67783;51.656;16.106;2023-02-15T03:16:39;5;5;2
77538;PMS7003;67783;51.656;16.106;2023-02-15T03:19:43;8;6;4
77538;PMS7003;67783;51.656;16.106;2023-02-15T03:22:51;7;5;4
77538;PMS7003;67783;51.656;16.106;2023-02-15T03:26:04;4;4;2
77538;PMS7003;67783;51.656;16.106;2023-02-15T03:29:09;8;3;2
77538;PMS7003;67783;51.656;16.106;2023-02-15T03:32:13;8;8;4
77538;PMS7003;67783;51.656;16.106;2023-02-15T03:35:16;4;4;2
77538;PMS7003;67783;51.656;16.106;2023-02-15T03:38:33;8;7;4
77538;PMS7003;67783;51.656;16.106;2023-02-15T03:41:44;8;5;3
77538;PMS7003;67783;51.656;16.106;2023-02-15T03:44:57;13;7;4
77538;PMS7003;67783;51.656;16.106;2023-02-15T03:48:04;8;8;5
77538;PMS7003;67783;51.656;16.106;2023-02-15T03:51:14;6;5;3
77538;PMS7003;67783;51.656;16.106;2023-02-15T03:54:32;4;3;2
77538;PMS7003;67783;51.656;16.106;2023-02-15T03:57:43;8;5;3
77538;PMS7003;67783;51.656;16.106;2023-02-15T04:00:58;4;4;2
77538;PMS7003;67783;51.656;16.106;2023-02-15T04:04:19;3;3;2
77538;PMS7003;67783;51.656;16.106;2023-02-15T04:07:23;10;6;4
77538;PMS7003;67783;51.656;16.106;2023-02-15T04:10:25;6;4;3
77538;PMS7003;67783;51.656;16.106;2023-02-15T04:13:39;7;6;4
77538;PMS7003;67783;51.656;16.106;2023-02-15T04:16:48;14;12;5
77538;PMS7003;67783;51.656;16.106;2023-02-15T04:19:50;13;11;7
77538;PMS7003;67783;51.656;16.106;2023-02-15T04:23:05;12;12;8
77538;PMS7003;67783;51.656;16.106;2023-02-15T04:26:19;17;14;7
77538;PMS7003;67783;51.656;16.106;2023-02-15T04:29:22;15;10;5
77538;PMS7003;67783;51.656;16.106;2023-02-15T04:32:25;2;0;0
77538;PMS7003;67783;51.656;16.106;2023-02-15T04:35:28;6;6;4
77538;PMS7003;67783;51.656;16.106;2023-02-15T04:38:32;8;6;4
77538;PMS7003;67783;51.656;16.106;2023-02-15T04:41:37;6;5;3
77538;PMS7003;67783;51.656;16.106;2023-02-15T04:44:39;9;6;4
77538;PMS7003;67783;51.656;16.106;2023-02-15T04:47:40;9;9;6
77538;PMS7003;67783;51.656;16.106;2023-02-15T04:50:43;7;7;3
77538;PMS7003;67783;51.656;16.106;2023-02-15T04:53:45;8;7;4
77538;PMS7003;67783;51.656;16.106;2023-02-15T04:56:58;8;6;3
77538;PMS7003;67783;51.656;16.106;2023-02-15T04:59:59;10;7;3
77538;PMS7003;67783;51.656;16.106;2023-02-15T05:03:01;12;9;3
77538;PMS7003;67783;51.656;16.106;2023-02-15T05:06:03;6;6;4
77538;PMS7003;67783;51.656;16.106;2023-02-15T05:09:06;5;4;3
77538;PMS7003;67783;51.656;16.106;2023-02-15T05:12:18;10;7;4
77538;PMS7003;67783;51.656;16.106;2023-02-15T05:15:20;8;8;5
77538;PMS7003;67783;51.656;16.106;2023-02-15T05:18:22;7;7;3
77538;PMS7003;67783;51.656;16.106;2023-02-15T05:21:24;13;6;4
77538;PMS7003;67783;51.656;16.106;2023-02-15T05:24:26;10;5;3
77538;PMS7003;67783;51.656;16.106;2023-02-15T05:27:40;8;8;6
77538;PMS7003;67783;51.656;16.106;2023-02-15T05:31:00;9;7;5
77538;PMS7003;67783;51.656;16.106;2023-02-15T05:34:08;13;10;5
77538;PMS7003;67783;51.656;16.106;2023-02-15T05:37:13;13;9;6
77538;PMS7003;67783;51.656;16.106;2023-02-15T05:40:15;8;7;4
77538;PMS7003;67783;51.656;16.106;2023-02-15T05:43:17;9;8;6
77538;PMS7003;67783;51.656;16.106;2023-02-15T05:46:19;19;8;5
77538;PMS7003;67783;51.656;16.106;2023-02-15T05:49:21;9;6;3
77538;PMS7003;67783;51.656;16.106;2023-02-15T05:52:23;11;6;5
77538;PMS7003;67783;51.656;16.106;2023-02-15T05:55:25;11;7;4
77538;PMS7003;67783;51.656;16.106;2023-02-15T05:58:31;13;9;6
77538;PMS7003;67783;51.656;16.106;2023-02-15T06:01:34;11;10;5
77538;PMS7003;67783;51.656;16.106;2023-02-15T06:04:36;17;10;6
77538;PMS7003;67783;51.656;16.106;2023-02-15T06:07:38;9;7;4
77538;PMS7003;67783;51.656;16.106;2023-02-15T06:10:40;7;7;5
77538;PMS7003;67783;51.656;16.106;2023-02-15T06:13:51;11;9;6
77538;PMS7003;67783;51.656;16.106;2023-02-15T06:16:52;10;9;5
77538;PMS7003;67783;51.656;16.106;2023-02-15T06:19:54;11;11;8
77538;PMS7003;67783;51.656;16.106;2023-02-15T06:22:56;13;12;6
77538;PMS7003;67783;51.656;16.106;2023-02-15T06:25:58;12;11;7
77538;PMS7003;67783;51.656;16.106;2023-02-15T06:29:00;8;7;3
77538;PMS7003;67783;51.656;16.106;2023-02-15T06:32:02;16;13;8
77538;PMS7003;67783;51.656;16.106;2023-02-15T06:35:07;14;10;5
77538;PMS7003;67783;51.656;16.106;2023-02-15T06:38:09;12;12;8
77538;PMS7003;67783;51.656;16.106;2023-02-15T06:41:11;9;7;4
77538;PMS7003;67783;51.656;16.106;2023-02-15T06:44:13;9;5;2
77538;PMS7003;67783;51.656;16.106;2023-02-15T06:47:14;12;9;7
77538;PMS7003;67783;51.656;16.106;2023-02-15T06:50:16;5;5;2
77538;PMS7003;67783;51.656;16.106;2023-02-15T06:53:18;7;4;2
77538;PMS7003;67783;51.656;16.106;2023-02-15T06:56:23;15;11;7
77538;PMS7003;67783;51.656;16.106;2023-02-15T06:59:25;9;8;5
77538;PMS7003;67783;51.656;16.106;2023-02-15T07:02:27;12;10;8
77538;PMS7003;67783;51.656;16.106;2023-02-15T07:05:32;15;12;9
77538;PMS7003;67783;51.656;16.106;2023-02-15T07:08:35;11;11;6
77538;PMS7003;67783;51.656;16.106;2023-02-15T07:11:44;12;10;6
77538;PMS7003;67783;51.656;16.106;2023-02-15T07:14:58;12;11;8
77538;PMS7003;67783;51.656;16.106;2023-02-15T07:18:00;19;11;7
77538;PMS7003;67783;51.656;16.106;2023-02-15T07:21:11;13;11;6
77538;PMS7003;67783;51.656;16.106;2023-02-15T07:24:13;18;10;7
77538;PMS7003;67783;51.656;16.106;2023-02-15T07:27:15;15;11;7
77538;PMS7003;67783;51.656;16.106;2023-02-15T07:30:17;13;12;8
77538;PMS7003;67783;51.656;16.106;2023-02-15T07:33:19;9;7;4
77538;PMS7003;67783;51.656;16.106;2023-02-15T07:36:32;6;5;2
77538;PMS7003;67783;51.656;16.106;2023-02-15T07:39:34;15;11;7
77538;PMS7003;67783;51.656;16.106;2023-02-15T07:42:35;10;7;3
77538;PMS7003;67783;51.656;16.106;2023-02-15T07:45:37;8;8;5
77538;PMS7003;67783;51.656;16.106;2023-02-15T07:48:40;13;8;4
77538;PMS7003;67783;51.656;16.106;2023-02-15T07:51:53;9;7;4
77538;PMS7003;67783;51.656;16.106;2023-02-15T07:54:54;13;9;5
77538;PMS7003;67783;51.656;16.106;2023-02-15T07:57:56;10;7;4
77538;PMS7003;67783;51.656;16.106;2023-02-15T08:00:58;7;7;4
77538;PMS7003;67783;51.656;16.106;2023-02-15T08:04:06;6;5;3
77538;PMS7003;67783;51.656;16.106;2023-02-15T08:07:13;9;8;4
77538;PMS7003;67783;51.656;16.106;2023-02-15T08:10:15;14;10;3
77538;PMS7003;67783;51.656;16.106;2023-02-15T08:13:27;5;4;2
77538;PMS7003;67783;51.656;16.106;2023-02-15T08:16:30;10;7;4
77538;PMS7003;67783;51.656;16.106;2023-02-15T08:19:35;9;8;5
77538;PMS7003;67783;51.656;16.106;2023-02-15T08:22:39;7;6;5
77538;PMS7003;67783;51.656;16.106;2023-02-15T08:25:41;10;6;5
77538;PMS7003;67783;51.656;16.106;2023-02-15T08:28:43;8;8;5
77538;PMS7003;67783;51.656;16.106;2023-02-15T08:31:47;6;6;5
77538;PMS7003;67783;51.656;16.106;2023-02-15T08:34:49;8;8;3
77538;PMS7003;67783;51.656;16.106;2023-02-15T08:38:00;8;7;4
77538;PMS7003;67783;51.656;16.106;2023-02-15T08:44:10;9;5;4
77538;PMS7003;67783;51.656;16.106;2023-02-15T08:47:13;10;7;5
77538;PMS7003;67783;51.656;16.106;2023-02-15T08:50:14;11;7;3
77538;PMS7003;67783;51.656;16.106;2023-02-15T08:53:21;6;5;3
77538;PMS7003;67783;51.656;16.106;2023-02-15T08:56:24;9;7;5
77538;PMS7003;67783;51.656;16.106;2023-02-15T08:59:28;7;7;3
77538;PMS7003;67783;51.656;16.106;2023-02-15T09:02:30;17;14;6
77538;PMS7003;67783;51.656;16.106;2023-02-15T09:05:32;9;6;4
77538;PMS7003;67783;51.656;16.106;2023-02-15T09:08:42;11;8;4
77538;PMS7003;67783;51.656;16.106;2023-02-15T09:11:45;10;9;4
77538;PMS7003;67783;51.656;16.106;2023-02-15T09:14:48;6;6;3
77538;PMS7003;67783;51.656;16.106;2023-02-15T09:17:50;9;8;5
77538;PMS7003;67783;51.656;16.106;2023-02-15T09:20:52;9;7;6
77538;PMS7003;67783;51.656;16.106;2023-02-15T09:24:04;8;6;4
77538;PMS7003;67783;51.656;16.106;2023-02-15T09:27:08;6;5;4
77538;PMS7003;67783;51.656;16.106;2023-02-15T09:30:10;10;8;5
77538;PMS7003;67783;51.656;16.106;2023-02-15T09:33:13;7;7;5
77538;PMS7003;67783;51.656;16.106;2023-02-15T09:39:27;11;10;4
77538;PMS7003;67783;51.656;16.106;2023-02-15T09:45:47;9;6;3
77538;PMS7003;67783;51.656;16.106;2023-02-15T09:49:00;7;5;2
77538;PMS7003;67783;51.656;16.106;2023-02-15T09:52:30;6;6;3
77538;PMS7003;67783;51.656;16.106;2023-02-15T09:55:34;9;6;3
77538;PMS7003;67783;51.656;16.106;2023-02-15T10:05:21;4;4;2
77538;PMS7003;67783;51.656;16.106;2023-02-15T10:18:27;9;7;4
77538;PMS7003;67783;51.656;16.106;2023-02-15T10:21:40;6;6;4
77538;PMS7003;67783;51.656;16.106;2023-02-15T10:25:09;9;7;5
77538;PMS7003;67783;51.656;16.106;2023-02-15T10:28:16;12;12;6
77538;PMS7003;67783;51.656;16.106;2023-02-15T10:34:32;6;6;3
77538;PMS7003;67783;51.656;16.106;2023-02-15T10:44:33;12;9;4
77538;PMS7003;67783;51.656;16.106;2023-02-15T10:47:32;8;8;5
77538;PMS7003;67783;51.656;16.106;2023-02-15T10:50:51;10;8;5
77538;PMS7003;67783;51.656;16.106;2023-02-15T11:00:33;13;7;4
77538;PMS7003;67783;51.656;16.106;2023-02-15T11:07:06;14;11;5
77538;PMS7003;67783;51.656;16.106;2023-02-15T11:13:34;8;7;4
77538;PMS7003;67783;51.656;16.106;2023-02-15T11:16:53;12;9;5
77538;PMS7003;67783;51.656;16.106;2023-02-15T11:23:17;16;8;6
77538;PMS7003;67783;51.656;16.106;2023-02-15T11:29:40;10;8;5
77538;PMS7003;67783;51.656;16.106;2023-02-15T11:32:48;14;7;4
77538;PMS7003;67783;51.656;16.106;2023-02-15T11:39:10;8;6;3
77538;PMS7003;67783;51.656;16.106;2023-02-15T11:42:16;9;6;4
77538;PMS7003;67783;51.656;16.106;2023-02-15T11:48:35;10;10;4
77538;PMS7003;67783;51.656;16.106;2023-02-15T11:51:37;8;8;3
77538;PMS7003;67783;51.656;16.106;2023-02-15T11:54:47;10;5;4
77538;PMS7003;67783;51.656;16.106;2023-02-15T11:57:54;10;9;5
77538;PMS7003;67783;51.656;16.106;2023-02-15T12:01:02;8;6;4
77538;PMS7003;67783;51.656;16.106;2023-02-15T12:07:32;8;7;5
77538;PMS7003;67783;51.656;16.106;2023-02-15T12:17:02;15;8;3
77538;PMS7003;67783;51.656;16.106;2023-02-15T12:20:20;9;9;6
77538;PMS7003;67783;51.656;16.106;2023-02-15T12:23:18;10;8;4
77538;PMS7003;67783;51.656;16.106;2023-02-15T12:26:25;13;11;8
77538;PMS7003;67783;51.656;16.106;2023-02-15T12:29:39;9;8;4
77538;PMS7003;67783;51.656;16.106;2023-02-15T12:35:59;8;6;4
77538;PMS7003;67783;51.656;16.106;2023-02-15T12:42:21;11;7;4
77538;PMS7003;67783;51.656;16.106;2023-02-15T12:45:28;10;7;5
77538;PMS7003;67783;51.656;16.106;2023-02-15T12:48:32;12;6;4
77538;PMS7003;67783;51.656;16.106;2023-02-15T12:54:48;4;4;2
77538;PMS7003;67783;51.656;16.106;2023-02-15T13:04:26;7;5;4
77538;PMS7003;67783;51.656;16.106;2023-02-15T13:07:30;6;5;3
77538;PMS7003;67783;51.656;16.106;2023-02-15T13:16:57;8;6;3
77538;PMS7003;67783;51.656;16.106;2023-02-15T13:20:20;8;8;5
77538;PMS7003;67783;51.656;16.106;2023-02-15T13:26:30;9;6;3
77538;PMS7003;67783;51.656;16.106;2023-02-15T13:29:34;14;8;5
77538;PMS7003;67783;51.656;16.106;2023-02-15T13:32:40;11;7;5
77538;PMS7003;67783;51.656;16.106;2023-02-15T13:35:48;13;7;5
77538;PMS7003;67783;51.656;16.106;2023-02-15T13:39:07;8;7;4
77538;PMS7003;67783;51.656;16.106;2023-02-15T13:52:16;10;9;4
77538;PMS7003;67783;51.656;16.106;2023-02-15T14:08:34;8;7;6
77538;PMS7003;67783;51.656;16.106;2023-02-15T14:21:34;10;9;5
77538;PMS7003;67783;51.656;16.106;2023-02-15T14:24:45;7;6;3
77538;PMS7003;67783;51.656;16.106;2023-02-15T14:31:09;7;5;3
77538;PMS7003;67783;51.656;16.106;2023-02-15T14:34:21;7;7;3
77538;PMS7003;67783;51.656;16.106;2023-02-15T14:40:42;8;7;3
77538;PMS7003;67783;51.656;16.106;2023-02-15T14:50:47;18;8;5
77538;PMS7003;67783;51.656;16.106;2023-02-15T14:53:49;10;8;5
77538;PMS7003;67783;51.656;16.106;2023-02-15T15:00:28;9;8;6
77538;PMS7003;67783;51.656;16.106;2023-02-15T15:03:23;6;5;3
77538;PMS7003;67783;51.656;16.106;2023-02-15T15:06:31;8;8;6
77538;PMS7003;67783;51.656;16.106;2023-02-15T15:09:36;11;10;6
77538;PMS7003;67783;51.656;16.106;2023-02-15T15:12:42;9;7;4
77538;PMS7003;67783;51.656;16.106;2023-02-15T15:15:49;10;7;5
77538;PMS7003;67783;51.656;16.106;2023-02-15T15:19:01;4;4;3
77538;PMS7003;67783;51.656;16.106;2023-02-15T15:22:04;14;10;6
77538;PMS7003;67783;51.656;16.106;2023-02-15T15:25:10;10;7;5
77538;PMS7003;67783;51.656;16.106;2023-02-15T15:51:02;8;8;5
77538;PMS7003;67783;51.656;16.106;2023-02-15T15:57:30;21;11;6
77538;PMS7003;67783;51.656;16.106;2023-02-15T16:00:36;7;6;4
77538;PMS7003;67783;51.656;16.106;2023-02-15T16:03:52;8;8;7
77538;PMS7003;67783;51.656;16.106;2023-02-15T16:07:03;7;7;4
77538;PMS7003;67783;51.656;16.106;2023-02-15T16:13:23;9;8;5
77538;PMS7003;67783;51.656;16.106;2023-02-15T16:16:28;5;5;4
77538;PMS7003;67783;51.656;16.106;2023-02-15T16:19:33;7;7;3
77538;PMS7003;67783;51.656;16.106;2023-02-15T16:22:37;9;7;5
77538;PMS7003;67783;51.656;16.106;2023-02-15T16:28:53;9;7;5
77538;PMS7003;67783;51.656;16.106;2023-02-15T16:32:02;12;10;7
77538;PMS7003;67783;51.656;16.106;2023-02-15T16:41:35;16;10;6
77538;PMS7003;67783;51.656;16.106;2023-02-15T16:44:39;16;8;5
77538;PMS7003;67783;51.656;16.106;2023-02-15T16:47:43;12;12;7
77538;PMS7003;67783;51.656;16.106;2023-02-15T16:50:53;15;13;8
77538;PMS7003;67783;51.656;16.106;2023-02-15T16:54:00;12;10;6
77538;PMS7003;67783;51.656;16.106;2023-02-15T17:00:22;20;12;7
77538;PMS7003;67783;51.656;16.106;2023-02-15T17:03:28;27;19;11
77538;PMS7003;67783;51.656;16.106;2023-02-15T17:06:30;16;14;9
77538;PMS7003;67783;51.656;16.106;2023-02-15T17:09:33;17;14;9
77538;PMS7003;67783;51.656;16.106;2023-02-15T17:19:17;12;11;8
77538;PMS7003;67783;51.656;16.106;2023-02-15T17:22:27;10;9;4
77538;PMS7003;67783;51.656;16.106;2023-02-15T17:25:37;22;17;10
77538;PMS7003;67783;51.656;16.106;2023-02-15T17:28:50;20;18;11
77538;PMS7003;67783;51.656;16.106;2023-02-15T17:31:56;22;19;11
77538;PMS7003;67783;51.656;16.106;2023-02-15T17:35:22;33;23;14
77538;PMS7003;67783;51.656;16.106;2023-02-15T17:41:21;27;22;13
77538;PMS7003;67783;51.656;16.106;2023-02-15T17:44:23;19;16;7
77538;PMS7003;67783;51.656;16.106;2023-02-15T17:47:33;24;16;10
77538;PMS7003;67783;51.656;16.106;2023-02-15T17:50:35;23;15;9
77538;PMS7003;67783;51.656;16.106;2023-02-15T17:53:37;23;18;12
77538;PMS7003;67783;51.656;16.106;2023-02-15T17:56:39;23;18;12
77538;PMS7003;67783;51.656;16.106;2023-02-15T17:59:41;17;15;10
77538;PMS7003;67783;51.656;16.106;2023-02-15T18:02:55;15;11;8
77538;PMS7003;67783;51.656;16.106;2023-02-15T18:06:09;16;13;9
77538;PMS7003;67783;51.656;16.106;2023-02-15T18:09:28;14;11;8
77538;PMS7003;67783;51.656;16.106;2023-02-15T18:12:42;8;6;4
77538;PMS7003;67783;51.656;16.106;2023-02-15T18:15:43;11;10;6
77538;PMS7003;67783;51.656;16.106;2023-02-15T18:18:45;12;11;7
77538;PMS7003;67783;51.656;16.106;2023-02-15T18:21:47;15;14;9
77538;PMS7003;67783;51.656;16.106;2023-02-15T18:24:50;19;14;8
77538;PMS7003;67783;51.656;16.106;2023-02-15T18:27:55;20;16;10
77538;PMS7003;67783;51.656;16.106;2023-02-15T18:30:57;19;15;8
77538;PMS7003;67783;51.656;16.106;2023-02-15T18:33:59;15;14;9
77538;PMS7003;67783;51.656;16.106;2023-02-15T18:37:03;17;16;9
77538;PMS7003;67783;51.656;16.106;2023-02-15T18:40:18;24;20;10
77538;PMS7003;67783;51.656;16.106;2023-02-15T18:43:22;16;13;8
77538;PMS7003;67783;51.656;16.106;2023-02-15T18:46:24;14;11;7
77538;PMS7003;67783;51.656;16.106;2023-02-15T18:49:26;13;11;7
77538;PMS7003;67783;51.656;16.106;2023-02-15T18:52:28;13;9;6
77538;PMS7003;67783;51.656;16.106;2023-02-15T18:55:34;21;15;9
77538;PMS7003;67783;51.656;16.106;2023-02-15T18:58:39;8;6;0
77538;PMS7003;67783;51.656;16.106;2023-02-15T19:01:43;15;13;7
77538;PMS7003;67783;51.656;16.106;2023-02-15T19:04:45;16;12;9
77538;PMS7003;67783;51.656;16.106;2023-02-15T19:07:47;15;13;5
77538;PMS7003;67783;51.656;16.106;2023-02-15T19:10:50;19;17;8
77538;PMS7003;67783;51.656;16.106;2023-02-15T19:14:00;18;14;8
77538;PMS7003;67783;51.656;16.106;2023-02-15T19:17:02;20;15;7
77538;PMS7003;67783;51.656;16.106;2023-02-15T19:20:04;21;15;10
77538;PMS7003;67783;51.656;16.106;2023-02-15T19:23:11;18;17;11
77538;PMS7003;67783;51.656;16.106;2023-02-15T19:26:19;16;11;7
77538;PMS7003;67783;51.656;16.106;2023-02-15T19:29:25;20;12;6
77538;PMS7003;67783;51.656;16.106;2023-02-15T19:32:30;20;20;11
77538;PMS7003;67783;51.656;16.106;2023-02-15T19:35:33;32;26;15
77538;PMS7003;67783;51.656;16.106;2023-02-15T19:38:35;21;16;8
77538;PMS7003;67783;51.656;16.106;2023-02-15T19:41:38;32;25;12
77538;PMS7003;67783;51.656;16.106;2023-02-15T19:44:45;25;22;15
77538;PMS7003;67783;51.656;16.106;2023-02-15T19:47:47;22;20;12
77538;PMS7003;67783;51.656;16.106;2023-02-15T19:50:49;26;22;13
77538;PMS7003;67783;51.656;16.106;2023-02-15T19:53:52;29;21;13
77538;PMS7003;67783;51.656;16.106;2023-02-15T19:56:57;26;23;12
77538;PMS7003;67783;51.656;16.106;2023-02-15T20:03:20;22;16;10
77538;PMS7003;67783;51.656;16.106;2023-02-15T20:06:22;19;15;10
77538;PMS7003;67783;51.656;16.106;2023-02-15T20:09:32;29;22;11
77538;PMS7003;67783;51.656;16.106;2023-02-15T20:12:41;25;22;14
77538;PMS7003;67783;51.656;16.106;2023-02-15T20:15:43;29;25;13
77538;PMS7003;67783;51.656;16.106;2023-02-15T20:18:46;22;19;10
77538;PMS7003;67783;51.656;16.106;2023-02-15T20:21:48;25;22;10
77538;PMS7003;67783;51.656;16.106;2023-02-15T20:24:54;28;18;10
77538;PMS7003;67783;51.656;16.106;2023-02-15T20:27:57;8;1;1
77538;PMS7003;67783;51.656;16.106;2023-02-15T20:30:59;20;14;7
77538;PMS7003;67783;51.656;16.106;2023-02-15T20:34:04;21;19;10
77538;PMS7003;67783;51.656;16.106;2023-02-15T20:40:21;22;19;13
77538;PMS7003;67783;51.656;16.106;2023-02-15T20:43:29;15;11;4
77538;PMS7003;67783;51.656;16.106;2023-02-15T20:46:31;18;13;6
77538;PMS7003;67783;51.656;16.106;2023-02-15T20:49:40;19;15;7
77538;PMS7003;67783;51.656;16.106;2023-02-15T20:52:42;11;9;7
77538;PMS7003;67783;51.656;16.106;2023-02-15T20:58:20;16;14;8
77538;PMS7003;67783;51.656;16.106;2023-02-15T21:01:27;21;14;8
77538;PMS7003;67783;51.656;16.106;2023-02-15T21:04:29;11;10;6
77538;PMS7003;67783;51.656;16.106;2023-02-15T21:07:36;15;13;9
77538;PMS7003;67783;51.656;16.106;2023-02-15T21:10:41;22;13;7
77538;PMS7003;67783;51.656;16.106;2023-02-15T21:13:46;13;12;6
77538;PMS7003;67783;51.656;16.106;2023-02-15T21:16:49;8;6;2
77538;PMS7003;67783;51.656;16.106;2023-02-15T21:19:53;10;9;5
77538;PMS7003;67783;51.656;16.106;2023-02-15T21:22:55;10;9;5
77538;PMS7003;67783;51.656;16.106;2023-02-15T21:26:01;14;11;7
77538;PMS7003;67783;51.656;16.106;2023-02-15T21:29:03;7;6;4
77538;PMS7003;67783;51.656;16.106;2023-02-15T21:32:05;14;8;5
77538;PMS7003;67783;51.656;16.106;2023-02-15T21:35:11;12;9;4
77538;PMS7003;67783;51.656;16.106;2023-02-15T21:38:15;15;14;7
77538;PMS7003;67783;51.656;16.106;2023-02-15T21:41:22;17;12;7
77538;PMS7003;67783;51.656;16.106;2023-02-15T21:44:37;15;13;7
77538;PMS7003;67783;51.656;16.106;2023-02-15T21:47:51;21;15;10
77538;PMS7003;67783;51.656;16.106;2023-02-15T21:50:56;18;15;9
77538;PMS7003;67783;51.656;16.106;2023-02-15T21:54:13;22;18;10
77538;PMS7003;67783;51.656;16.106;2023-02-15T21:57:18;16;15;9
77538;PMS7003;67783;51.656;16.106;2023-02-15T22:00:23;21;17;10
77538;PMS7003;67783;51.656;16.106;2023-02-15T22:03:29;23;16;9
77538;PMS7003;67783;51.656;16.106;2023-02-15T22:06:36;26;21;11
77538;PMS7003;67783;51.656;16.106;2023-02-15T22:09:38;23;19;13
77538;PMS7003;67783;51.656;16.106;2023-02-15T22:12:40;13;8;3
77538;PMS7003;67783;51.656;16.106;2023-02-15T22:15:45;22;13;7
77538;PMS7003;67783;51.656;16.106;2023-02-15T22:18:47;15;14;8
77538;PMS7003;67783;51.656;16.106;2023-02-15T22:21:49;16;13;8
77538;PMS7003;67783;51.656;16.106;2023-02-15T22:24:52;12;11;5
77538;PMS7003;67783;51.656;16.106;2023-02-15T22:27:54;13;11;7
77538;PMS7003;67783;51.656;16.106;2023-02-15T22:31:09;9;7;5
77538;PMS7003;67783;51.656;16.106;2023-02-15T22:37:25;10;8;5
77538;PMS7003;67783;51.656;16.106;2023-02-15T22:40:32;10;5;4
77538;PMS7003;67783;51.656;16.106;2023-02-15T22:43:38;9;8;4
77538;PMS7003;67783;51.656;16.106;2023-02-15T22:46:43;20;13;8
77538;PMS7003;67783;51.656;16.106;2023-02-15T22:49:45;14;13;7
77538;PMS7003;67783;51.656;16.106;2023-02-15T22:52:47;15;10;7
77538;PMS7003;67783;51.656;16.106;2023-02-15T22:55:53;15;10;5
77538;PMS7003;67783;51.656;16.106;2023-02-15T22:58:58;10;5;3
77538;PMS7003;67783;51.656;16.106;2023-02-15T23:02:02;9;6;4
77538;PMS7003;67783;51.656;16.106;2023-02-15T23:05:14;20;12;8
77538;PMS7003;67783;51.656;16.106;2023-02-15T23:08:20;13;11;6
77538;PMS7003;67783;51.656;16.106;2023-02-15T23:11:24;13;9;6
77538;PMS7003;67783;51.656;16.106;2023-02-15T23:14:30;11;9;5
77538;PMS7003;67783;51.656;16.106;2023-02-15T23:17:35;17;12;8
77538;PMS7003;67783;51.656;16.106;2023-02-15T23:20:37;16;13;9
77538;PMS7003;67783;51.656;16.106;2023-02-15T23:23:40;19;16;8
77538;PMS7003;67783;51.656;16.106;2023-02-15T23:26:45;14;12;7
77538;PMS7003;67783;51.656;16.106;2023-02-15T23:29:48;14;12;8
77538;PMS7003;67783;51.656;16.106;2023-02-15T23:32:52;12;12;7
77538;PMS7003;67783;51.656;16.106;2023-02-15T23:35:56;11;10;5
77538;PMS7003;67783;51.656;16.106;2023-02-15T23:39:00;13;13;6
77538;PMS7003;67783;51.656;16.106;2023-02-15T23:42:19;13;11;6
77538;PMS7003;67783;51.656;16.106;2023-02-15T23:45:26;9;8;4
77538;PMS7003;67783;51.656;16.106;2023-02-15T23:48:30;8;6;4
77538;PMS7003;67783;51.656;16.106;2023-02-15T23:51:36;8;5;4
77538;PMS7003;67783;51.656;16.106;2023-02-15T23:54:37;7;5;3
77538;PMS7003;67783;51.656;16.106;2023-02-15T23:57:39;8;5;3
